Time;durP1;ratioP1;P1;durP2;ratioP2;P2;SDS_P1;SDS_P2;PMS_P1;PMS_P2;Temp;Humidity;BMP_temperature;BMP_pressure;BME280_temperature;BME280_humidity;BME280_pressure;Samples;Min_cycle;Max_cycle;Signal;HPM_P1;HPM_P2
2022/08/19 00:00:20;;;;;;;5.55;4.00;;;;;;;;;;4999950;28;20017;-86
2022/08/19 00:02:46;;;;;;;5.65;4.22;;;;;;;;;;5005162;28;20033;-88
2022/08/19 00:05:13;;;;;;;7.00;4.50;;;;;;;;;;4998736;28;20025;-86
2022/08/19 00:07:39;;;;;;;5.25;4.38;;;;;;;;;;5002229;28;20528;-87
2022/08/19 00:10:06;;;;;;;4.68;4.25;;;;;;;;;;4986340;28;20112;-88
2022/08/19 00:12:33;;;;;;;5.07;4.15;;;;;;;;;;4999406;28;20041;-86
2022/08/19 00:14:58;;;;;;;5.72;5.13;;;;;;;;;;4997815;28;20467;-87
2022/08/19 00:17:24;;;;;;;4.88;4.05;;;;;;;;;;4999978;28;20101;-87
2022/08/19 00:19:49;;;;;;;6.55;4.75;;;;;;;;;;4985843;28;20058;-86
2022/08/19 00:22:17;;;;;;;6.40;4.03;;;;;;;;;;5001600;28;20030;-87
2022/08/19 00:24:43;;;;;;;7.53;4.55;;;;;;;;;;4982800;28;20482;-88
2022/08/19 00:27:09;;;;;;;5.18;4.32;;;;;;;;;;4982888;28;20488;-88
2022/08/19 00:29:34;;;;;;;6.57;4.53;;;;;;;;;;5002355;28;20021;-88
2022/08/19 00:32:00;;;;;;;5.70;4.40;;;;;;;;;;5005836;28;20379;-87
2022/08/19 00:34:29;;;;;;;4.97;3.90;;;;;;;;;;4984093;28;20030;-88
2022/08/19 00:36:56;;;;;;;7.13;3.92;;;;;;;;;;4998861;28;20121;-89
2022/08/19 00:39:22;;;;;;;6.97;4.78;;;;;;;;;;4986936;28;20034;-89
2022/08/19 00:41:51;;;;;;;5.35;4.53;;;;;;;;;;5005712;28;20105;-90
2022/08/19 00:44:23;;;;;;;4.72;4.20;;;;;;;;;;4984927;28;20026;-88
2022/08/19 00:46:52;;;;;;;5.78;4.45;;;;;;;;;;4984646;28;20076;-87
2022/08/19 00:49:24;;;;;;;4.97;4.32;;;;;;;;;;4982011;28;20564;-88
2022/08/19 00:51:53;;;;;;;5.82;4.38;;;;;;;;;;4982652;28;20091;-86
2022/08/19 00:54:20;;;;;;;6.40;4.22;;;;;;;;;;4979574;28;20030;-86
2022/08/19 00:56:47;;;;;;;5.72;4.28;;;;;;;;;;5000885;28;20470;-86
2022/08/19 00:59:14;;;;;;;6.45;4.13;;;;;;;;;;5005274;28;20029;-87
2022/08/19 01:01:42;;;;;;;4.72;4.25;;;;;;;;;;4978136;28;20057;-88
2022/08/19 01:04:07;;;;;;;4.43;3.55;;;;;;;;;;5000101;28;20056;-86
2022/08/19 01:06:35;;;;;;;4.72;4.05;;;;;;;;;;5003732;28;20483;-87
2022/08/19 01:09:00;;;;;;;4.63;3.80;;;;;;;;;;4998921;28;20478;-87
2022/08/19 01:11:28;;;;;;;5.82;4.35;;;;;;;;;;4983367;28;20026;-87
2022/08/19 01:13:54;;;;;;;6.22;4.40;;;;;;;;;;4977514;28;20034;-85
2022/08/19 01:16:22;;;;;;;5.72;4.30;;;;;;;;;;5002664;28;20411;-87
2022/08/19 01:18:48;;;;;;;5.10;4.15;;;;;;;;;;4995956;28;20081;-86
2022/08/19 01:21:37;;;;;;;5.07;4.57;;;;;;;;;;5000797;28;20102;-87
2022/08/19 01:24:03;;;;;;;6.10;4.25;;;;;;;;;;4994926;28;20030;-86
2022/08/19 01:26:29;;;;;;;5.20;4.32;;;;;;;;;;4999177;28;20068;-87
2022/08/19 01:28:57;;;;;;;5.80;4.30;;;;;;;;;;4995005;28;20034;-86
2022/08/19 01:31:25;;;;;;;4.22;3.65;;;;;;;;;;5003863;28;20029;-86
2022/08/19 01:33:52;;;;;;;5.53;4.75;;;;;;;;;;4999136;28;20096;-86
2022/08/19 01:36:33;;;;;;;6.70;4.00;;;;;;;;;;4997716;28;20030;-86
2022/08/19 01:39:01;;;;;;;5.88;4.03;;;;;;;;;;4998228;28;20117;-85
2022/08/19 01:41:27;;;;;;;5.15;4.65;;;;;;;;;;4997483;28;20079;-86
2022/08/19 01:43:53;;;;;;;5.45;4.18;;;;;;;;;;5001556;28;20470;-88
2022/08/19 01:46:19;;;;;;;8.10;3.88;;;;;;;;;;4998593;28;20022;-89
2022/08/19 01:48:45;;;;;;;4.40;3.90;;;;;;;;;;4994027;28;20506;-85
2022/08/19 01:51:12;;;;;;;6.00;4.43;;;;;;;;;;5002839;28;20117;-87
2022/08/19 01:53:38;;;;;;;6.72;4.47;;;;;;;;;;5002511;28;20034;-88
2022/08/19 01:56:05;;;;;;;5.18;4.18;;;;;;;;;;4997611;28;20041;-87
2022/08/19 01:58:36;;;;;;;7.38;4.00;;;;;;;;;;4997242;28;20481;-87
2022/08/19 02:01:03;;;;;;;6.60;4.32;;;;;;;;;;5000727;28;20474;-87
2022/08/19 02:03:29;;;;;;;4.57;4.18;;;;;;;;;;4994890;28;20035;-86
2022/08/19 02:05:59;;;;;;;7.75;4.68;;;;;;;;;;4998957;28;20030;-88
2022/08/19 02:08:26;;;;;;;4.72;4.25;;;;;;;;;;4998059;28;20022;-87
2022/08/19 02:10:52;;;;;;;5.65;4.78;;;;;;;;;;4995336;28;20040;-88
2022/08/19 02:13:18;;;;;;;7.30;4.65;;;;;;;;;;4995338;28;20030;-88
2022/08/19 02:15:43;;;;;;;5.22;4.50;;;;;;;;;;4992448;28;20035;-85
2022/08/19 02:18:09;;;;;;;5.63;3.95;;;;;;;;;;4994002;28;20053;-87
2022/08/19 02:20:35;;;;;;;4.68;4.10;;;;;;;;;;4980589;28;20032;-87
2022/08/19 02:23:01;;;;;;;5.10;4.20;;;;;;;;;;4994710;28;20030;-87
2022/08/19 02:25:27;;;;;;;7.25;4.20;;;;;;;;;;5000731;28;20433;-88
2022/08/19 02:27:53;;;;;;;5.00;4.00;;;;;;;;;;4997478;28;20478;-88
2022/08/19 02:30:19;;;;;;;4.35;3.95;;;;;;;;;;4996725;28;20050;-86
2022/08/19 02:32:45;;;;;;;4.95;4.10;;;;;;;;;;4993666;28;20057;-86
2022/08/19 02:35:11;;;;;;;5.40;4.20;;;;;;;;;;4995414;28;20121;-87
2022/08/19 02:40:21;;;;;;;5.10;4.15;;;;;;;;;;5003468;28;20085;-87
2022/08/19 02:42:46;;;;;;;4.90;3.75;;;;;;;;;;4999127;28;20041;-89
2022/08/19 02:45:13;;;;;;;6.07;4.00;;;;;;;;;;4997081;28;20022;-87
2022/08/19 02:47:39;;;;;;;5.90;4.20;;;;;;;;;;5002726;28;20030;-88
2022/08/19 02:50:05;;;;;;;6.18;3.83;;;;;;;;;;4993886;28;20080;-87
2022/08/19 02:52:33;;;;;;;5.57;4.00;;;;;;;;;;5002421;28;20026;-86
2022/08/19 02:54:59;;;;;;;5.75;4.15;;;;;;;;;;4980122;28;20505;-87
2022/08/19 02:57:25;;;;;;;5.70;4.07;;;;;;;;;;4978490;28;20594;-87
2022/08/19 02:59:51;;;;;;;4.57;4.07;;;;;;;;;;4980153;28;20041;-87
2022/08/19 03:02:17;;;;;;;5.25;3.75;;;;;;;;;;4980260;28;20026;-88
2022/08/19 03:04:42;;;;;;;5.47;3.83;;;;;;;;;;4977431;28;20018;-88
2022/08/19 03:07:09;;;;;;;5.45;4.20;;;;;;;;;;4997811;28;20030;-86
2022/08/19 03:09:37;;;;;;;4.38;3.97;;;;;;;;;;4978331;28;20049;-88
2022/08/19 03:12:04;;;;;;;5.72;4.13;;;;;;;;;;4997876;28;20033;-89
2022/08/19 03:14:31;;;;;;;7.97;4.60;;;;;;;;;;4979348;28;20049;-88
2022/08/19 03:17:04;;;;;;;4.80;4.20;;;;;;;;;;4985050;28;20033;-87
2022/08/19 03:19:31;;;;;;;5.47;4.25;;;;;;;;;;4975123;28;20100;-87
2022/08/19 03:21:57;;;;;;;4.82;4.20;;;;;;;;;;4964032;28;20043;-87
2022/08/19 03:24:23;;;;;;;4.47;3.72;;;;;;;;;;4964262;28;20057;-88
2022/08/19 03:26:52;;;;;;;4.38;3.95;;;;;;;;;;4985219;28;20541;-87
2022/08/19 03:29:18;;;;;;;9.77;5.70;;;;;;;;;;4965128;28;20046;-89
2022/08/19 03:31:45;;;;;;;4.85;3.80;;;;;;;;;;4982931;28;20030;-88
2022/08/19 03:34:12;;;;;;;4.00;3.60;;;;;;;;;;4965606;28;20031;-88
2022/08/19 03:36:37;;;;;;;4.60;4.00;;;;;;;;;;4982860;28;20023;-87
2022/08/19 03:39:04;;;;;;;4.72;3.60;;;;;;;;;;4970843;28;20057;-88
2022/08/19 03:41:32;;;;;;;5.07;3.80;;;;;;;;;;4966822;28;20021;-87
2022/08/19 03:43:58;;;;;;;5.03;3.67;;;;;;;;;;4985361;28;20050;-89
2022/08/19 03:46:27;;;;;;;8.13;3.63;;;;;;;;;;4984521;28;20025;-87
2022/08/19 03:48:56;;;;;;;3.85;3.38;;;;;;;;;;4967187;28;20114;-88
2022/08/19 03:51:28;;;;;;;4.20;3.60;;;;;;;;;;4969177;28;20360;-88
2022/08/19 03:53:54;;;;;;;4.50;3.58;;;;;;;;;;4984649;28;20520;-88
2022/08/19 03:56:25;;;;;;;4.90;3.83;;;;;;;;;;4964397;28;20018;-89
2022/08/19 03:58:52;;;;;;;6.22;3.88;;;;;;;;;;4985951;28;20053;-87
2022/08/19 04:01:21;;;;;;;6.03;3.80;;;;;;;;;;4983295;28;20031;-88
2022/08/19 04:03:48;;;;;;;6.10;4.30;;;;;;;;;;4966827;28;20066;-87
2022/08/19 04:06:23;;;;;;;8.77;4.38;;;;;;;;;;4964282;28;20077;-88
2022/08/19 04:08:51;;;;;;;5.55;4.10;;;;;;;;;;4985711;28;20022;-86
2022/08/19 04:11:23;;;;;;;7.97;4.03;;;;;;;;;;4981611;28;20027;-88
2022/08/19 04:13:50;;;;;;;5.32;4.40;;;;;;;;;;4969761;28;20173;-88
2022/08/19 04:16:17;;;;;;;5.00;4.03;;;;;;;;;;4963099;28;20030;-89
2022/08/19 04:18:43;;;;;;;4.55;4.00;;;;;;;;;;4988423;28;20053;-88
2022/08/19 04:21:19;;;;;;;8.00;4.35;;;;;;;;;;5004148;28;20377;-88
2022/08/19 04:23:46;;;;;;;4.97;4.07;;;;;;;;;;4998785;28;20034;-87
2022/08/19 04:26:16;;;;;;;4.15;3.70;;;;;;;;;;5001039;28;20080;-87
2022/08/19 04:28:43;;;;;;;4.93;3.88;;;;;;;;;;4999661;28;20041;-87
2022/08/19 04:31:14;;;;;;;5.15;4.15;;;;;;;;;;4998620;28;20080;-88
2022/08/19 04:33:40;;;;;;;10.90;4.30;;;;;;;;;;5002015;28;20038;-84
2022/08/19 04:36:06;;;;;;;4.88;4.38;;;;;;;;;;4995348;28;20538;-84
2022/08/19 04:38:31;;;;;;;7.43;4.32;;;;;;;;;;4999739;28;20486;-85
2022/08/19 04:43:41;;;;;;;5.88;5.07;;;;;;;;;;5000681;28;20044;-86
2022/08/19 04:46:11;;;;;;;5.80;5.18;;;;;;;;;;4998058;28;20101;-85
2022/08/19 04:48:38;;;;;;;6.40;5.05;;;;;;;;;;4997452;28;20427;-86
2022/08/19 04:51:07;;;;;;;8.35;5.03;;;;;;;;;;4998512;28;20034;-85
2022/08/19 04:53:34;;;;;;;5.75;5.07;;;;;;;;;;5002331;28;20048;-85
2022/08/19 04:56:06;;;;;;;5.90;5.30;;;;;;;;;;4996770;28;20037;-87
2022/08/19 04:58:33;;;;;;;7.47;5.80;;;;;;;;;;5013615;28;20023;-88
2022/08/19 05:00:59;;;;;;;6.32;5.72;;;;;;;;;;4997842;28;20050;-84
2022/08/19 05:03:26;;;;;;;7.47;5.10;;;;;;;;;;5002375;28;20648;-84
2022/08/19 05:05:51;;;;;;;6.85;6.15;;;;;;;;;;4998619;28;20494;-84
2022/08/19 05:08:19;;;;;;;8.38;5.40;;;;;;;;;;4995987;28;20102;-85
2022/08/19 05:10:49;;;;;;;8.35;5.95;;;;;;;;;;4996252;28;20031;-89
2022/08/19 05:13:16;;;;;;;;;;;;;;;;;;4999194;28;20033;-84
2022/08/19 05:15:42;;;;;;;8.02;6.15;;;;;;;;;;5002575;28;20001;-85
2022/08/19 05:23:35;;;;;;;8.02;5.85;;;;;;;;;;4995837;28;20033;-85
2022/08/19 05:26:01;;;;;;;7.47;6.53;;;;;;;;;;4982250;28;20025;-84
2022/08/19 05:28:27;;;;;;;16.35;7.35;;;;;;;;;;4999299;28;20045;-86
2022/08/19 05:30:55;;;;;;;7.20;6.50;;;;;;;;;;4996483;28;20026;-85
2022/08/19 05:33:21;;;;;;;10.07;6.53;;;;;;;;;;5001871;28;20148;-87
2022/08/19 05:35:48;;;;;;;9.85;6.25;;;;;;;;;;4999700;28;20030;-84
2022/08/19 05:38:13;;;;;;;7.30;6.40;;;;;;;;;;4997202;28;20026;-85
2022/08/19 05:40:39;;;;;;;7.15;6.00;;;;;;;;;;5001433;28;20049;-83
2022/08/19 05:43:06;;;;;;;11.90;6.05;;;;;;;;;;4981171;28;20161;-83
2022/08/19 05:45:32;;;;;;;6.15;5.28;;;;;;;;;;4998238;28;20467;-84
2022/08/19 05:47:58;;;;;;;7.55;6.22;;;;;;;;;;4999194;28;20037;-83
2022/08/19 05:50:25;;;;;;;6.57;5.82;;;;;;;;;;5000211;28;20026;-84
2022/08/19 05:52:57;;;;;;;9.55;6.00;;;;;;;;;;4999756;28;20033;-85
2022/08/19 05:55:22;;;;;;;7.00;6.05;;;;;;;;;;4996340;28;20031;-85
2022/08/19 05:57:48;;;;;;;6.88;5.57;;;;;;;;;;4998947;28;20029;-84
2022/08/19 06:00:14;;;;;;;6.25;5.30;;;;;;;;;;5000396;28;20041;-84
2022/08/19 06:02:40;;;;;;;7.00;5.53;;;;;;;;;;4997804;28;20062;-83
2022/08/19 06:05:08;;;;;;;9.40;6.15;;;;;;;;;;4979004;28;20017;-82
2022/08/19 06:07:35;;;;;;;6.82;6.13;;;;;;;;;;4984721;28;20036;-85
2022/08/19 06:10:01;;;;;;;6.72;5.68;;;;;;;;;;4994520;28;20037;-83
2022/08/19 06:12:34;;;;;;;6.63;5.82;;;;;;;;;;4999747;28;20081;-84
2022/08/19 06:15:08;;;;;;;7.80;6.03;;;;;;;;;;4977182;28;20081;-85
2022/08/19 06:17:34;;;;;;;7.28;5.85;;;;;;;;;;4983633;28;20054;-85
2022/08/19 06:20:01;;;;;;;7.72;5.85;;;;;;;;;;4997443;28;20022;-84
2022/08/19 06:22:27;;;;;;;9.20;6.05;;;;;;;;;;4999188;28;20030;-84
2022/08/19 06:24:53;;;;;;;7.32;6.28;;;;;;;;;;4992431;28;20053;-86
2022/08/19 06:27:19;;;;;;;8.10;5.72;;;;;;;;;;4996648;28;20026;-83
2022/08/19 06:29:46;;;;;;;13.27;5.68;;;;;;;;;;5000210;28;20033;-84
2022/08/19 06:32:16;;;;;;;8.95;5.65;;;;;;;;;;4998350;28;20034;-86
2022/08/19 06:34:41;;;;;;;11.90;6.65;;;;;;;;;;4997739;28;20038;-83
2022/08/19 06:37:07;;;;;;;9.73;6.03;;;;;;;;;;4997253;28;20037;-87
2022/08/19 06:39:37;;;;;;;13.65;6.50;;;;;;;;;;4997914;28;20042;-86
2022/08/19 06:42:06;;;;;;;15.95;6.15;;;;;;;;;;5002025;28;20030;-85
2022/08/19 06:44:34;;;;;;;10.73;6.13;;;;;;;;;;4994655;28;20042;-86
2022/08/19 06:47:04;;;;;;;12.00;6.90;;;;;;;;;;4998801;28;20030;-85
2022/08/19 06:49:33;;;;;;;9.15;6.57;;;;;;;;;;4997008;28;20057;-86
2022/08/19 06:52:00;;;;;;;15.18;6.88;;;;;;;;;;4999789;28;20030;-86
2022/08/19 06:54:29;;;;;;;9.95;6.55;;;;;;;;;;4999953;28;20022;-86
2022/08/19 06:56:56;;;;;;;17.38;6.35;;;;;;;;;;4996400;28;20042;-87
2022/08/19 06:59:26;;;;;;;16.83;5.97;;;;;;;;;;4995978;28;20026;-90
2022/08/19 07:01:54;;;;;;;14.57;6.78;;;;;;;;;;4997462;28;20027;-88
2022/08/19 07:04:22;;;;;;;13.82;6.70;;;;;;;;;;4992074;28;20053;-89
2022/08/19 07:06:49;;;;;;;13.77;6.18;;;;;;;;;;4994899;28;20137;-85
2022/08/19 07:09:17;;;;;;;10.88;6.30;;;;;;;;;;4994858;28;20026;-85
2022/08/19 07:11:52;;;;;;;9.25;5.80;;;;;;;;;;4999815;28;20060;-85
2022/08/19 07:14:20;;;;;;;8.27;5.55;;;;;;;;;;4997393;28;20030;-85
2022/08/19 07:16:48;;;;;;;12.07;5.88;;;;;;;;;;4999754;28;20439;-86
2022/08/19 07:19:14;;;;;;;9.52;5.50;;;;;;;;;;5003494;28;20070;-88
2022/08/19 07:21:41;;;;;;;9.45;6.05;;;;;;;;;;5004825;28;20444;-85
2022/08/19 07:24:07;;;;;;;7.95;5.88;;;;;;;;;;5003125;28;20467;-83
2022/08/19 07:26:39;;;;;;;10.05;6.30;;;;;;;;;;4984038;28;20034;-86
2022/08/19 07:29:05;;;;;;;9.25;6.70;;;;;;;;;;5000778;28;20383;-85
2022/08/19 07:31:31;;;;;;;9.63;6.65;;;;;;;;;;5001643;28;20466;-85
2022/08/19 07:33:57;;;;;;;9.38;5.95;;;;;;;;;;4998893;28;20042;-85
2022/08/19 07:36:32;;;;;;;13.25;6.85;;;;;;;;;;4998765;28;20034;-87
2022/08/19 07:38:59;;;;;;;10.55;6.22;;;;;;;;;;4996611;28;20105;-84
2022/08/19 07:41:26;;;;;;;8.30;6.47;;;;;;;;;;5002376;28;20034;-84
2022/08/19 07:43:52;;;;;;;6.95;5.30;;;;;;;;;;5004040;28;20026;-85
2022/08/19 07:46:20;;;;;;;9.00;6.28;;;;;;;;;;4995749;28;20512;-85
2022/08/19 07:48:47;;;;;;;10.23;6.43;;;;;;;;;;5001928;28;20033;-83
2022/08/19 07:51:15;;;;;;;17.45;10.30;;;;;;;;;;5002579;28;20049;-83
2022/08/19 07:53:43;;;;;;;8.75;6.43;;;;;;;;;;5003541;28;20034;-85
2022/08/19 07:56:08;;;;;;;7.70;5.93;;;;;;;;;;4979881;28;20041;-85
2022/08/19 07:58:38;;;;;;;11.85;5.97;;;;;;;;;;5007849;28;20033;-83
2022/08/19 08:01:05;;;;;;;13.15;5.85;;;;;;;;;;4996713;28;20101;-86
2022/08/19 08:09:12;;;;;;;17.55;5.68;;;;;;;;;;4996900;28;20057;-85
2022/08/19 08:11:39;;;;;;;8.93;5.70;;;;;;;;;;4996300;28;20422;-84
2022/08/19 08:14:05;;;;;;;9.20;5.60;;;;;;;;;;4995594;28;20061;-82
2022/08/19 08:16:37;;;;;;;10.82;5.47;;;;;;;;;;5004370;28;20103;-84
2022/08/19 08:19:07;;;;;;;5.70;4.93;;;;;;;;;;4996575;28;20096;-86
2022/08/19 08:21:33;;;;;;;9.27;5.07;;;;;;;;;;4997779;28;20084;-85
2022/08/19 08:23:58;;;;;;;12.85;4.95;;;;;;;;;;4999521;28;20097;-85
2022/08/19 08:26:25;;;;;;;7.53;5.13;;;;;;;;;;4999314;28;20750;-84
2022/08/19 08:28:54;;;;;;;7.43;4.43;;;;;;;;;;4997334;28;20447;-86
2022/08/19 08:31:20;;;;;;;7.90;4.45;;;;;;;;;;5001717;28;20053;-86
2022/08/19 08:33:46;;;;;;;7.57;5.18;;;;;;;;;;5002450;28;20811;-84
2022/08/19 08:36:13;;;;;;;11.32;5.53;;;;;;;;;;4996038;28;20398;-84
2022/08/19 08:38:41;;;;;;;5.90;4.75;;;;;;;;;;4998490;28;20049;-84
2022/08/19 08:41:14;;;;;;;6.05;3.80;;;;;;;;;;4998831;28;20038;-85
2022/08/19 08:43:43;;;;;;;4.22;3.80;;;;;;;;;;5001851;28;20478;-85
2022/08/19 08:46:15;;;;;;;6.30;4.43;;;;;;;;;;4998916;28;20026;-84
2022/08/19 08:49:15;;;;;;;6.25;4.70;;;;;;;;;;4995425;28;20041;-87
2022/08/19 08:51:47;;;;;;;7.95;4.00;;;;;;;;;;4993174;28;20112;-84
2022/08/19 08:54:17;;;;;;;7.00;4.47;;;;;;;;;;5000834;28;20018;-85
2022/08/19 08:56:44;;;;;;;10.13;4.68;;;;;;;;;;4997505;28;20059;-87
2022/08/19 08:59:26;;;;;;;11.30;4.32;;;;;;;;;;4993558;28;20042;-84
2022/08/19 09:01:51;;;;;;;7.18;3.88;;;;;;;;;;4997647;28;20026;-84
2022/08/19 09:04:17;;;;;;;9.95;5.35;;;;;;;;;;4998098;28;20097;-84
2022/08/19 09:06:53;;;;;;;7.55;4.10;;;;;;;;;;4993055;28;20030;-84
2022/08/19 09:09:34;;;;;;;4.78;4.30;;;;;;;;;;4993740;28;20387;-83
2022/08/19 09:12:41;;;;;;;7.32;4.07;;;;;;;;;;4992149;28;20031;-84
2022/08/19 09:15:10;;;;;;;6.50;3.90;;;;;;;;;;4967981;28;20034;-84
2022/08/19 09:17:38;;;;;;;9.35;4.40;;;;;;;;;;4982792;28;20053;-84
2022/08/19 09:20:10;;;;;;;5.13;3.67;;;;;;;;;;4998995;28;20455;-84
2022/08/19 09:22:40;;;;;;;5.93;4.10;;;;;;;;;;4996082;28;20025;-84
2022/08/19 09:25:08;;;;;;;7.07;4.25;;;;;;;;;;4997596;28;20050;-84
2022/08/19 09:27:37;;;;;;;5.55;3.80;;;;;;;;;;4999028;28;20061;-85
2022/08/19 09:30:04;;;;;;;6.33;4.57;;;;;;;;;;4999390;28;20376;-84
2022/08/19 09:32:30;;;;;;;5.70;4.15;;;;;;;;;;4995767;28;20264;-84
2022/08/19 09:34:57;;;;;;;7.07;3.78;;;;;;;;;;5000898;28;20034;-84
2022/08/19 09:37:24;;;;;;;7.30;4.00;;;;;;;;;;4996928;28;20026;-84
2022/08/19 09:39:49;;;;;;;5.55;3.80;;;;;;;;;;4997134;28;20026;-84
2022/08/19 09:42:15;;;;;;;4.88;3.72;;;;;;;;;;4994225;28;20458;-85
2022/08/19 09:44:41;;;;;;;4.30;3.28;;;;;;;;;;4994956;28;20110;-84
2022/08/19 09:47:09;;;;;;;4.20;3.20;;;;;;;;;;4993421;28;20030;-83
2022/08/19 09:49:35;;;;;;;10.68;4.20;;;;;;;;;;4997308;28;20157;-83
2022/08/19 09:52:01;;;;;;;5.50;3.53;;;;;;;;;;4997586;28;20113;-84
2022/08/19 09:54:27;;;;;;;4.32;3.50;;;;;;;;;;4996719;28;20025;-84
2022/08/19 09:56:53;;;;;;;5.47;3.80;;;;;;;;;;4995053;28;20026;-86
2022/08/19 09:59:19;;;;;;;5.43;3.63;;;;;;;;;;4996831;28;20093;-84
2022/08/19 10:01:44;;;;;;;6.18;3.40;;;;;;;;;;4996052;28;20046;-85
2022/08/19 10:04:10;;;;;;;7.05;3.38;;;;;;;;;;5011762;28;20526;-85
2022/08/19 10:06:37;;;;;;;5.40;4.05;;;;;;;;;;4995924;28;20418;-86
2022/08/19 10:09:06;;;;;;;5.82;3.70;;;;;;;;;;4994471;28;20044;-84
2022/08/19 10:11:32;;;;;;;4.10;3.40;;;;;;;;;;4996931;28;20033;-83
2022/08/19 10:13:57;;;;;;;6.10;3.97;;;;;;;;;;4995702;28;20081;-83
2022/08/19 10:16:25;;;;;;;5.57;3.47;;;;;;;;;;4994458;28;20191;-82
2022/08/19 10:18:51;;;;;;;5.20;3.58;;;;;;;;;;4995302;28;20050;-83
2022/08/19 10:21:22;;;;;;;5.85;4.43;;;;;;;;;;4980808;28;20041;-87
2022/08/19 10:23:51;;;;;;;6.47;3.72;;;;;;;;;;5005315;28;20040;-84
2022/08/19 10:26:20;;;;;;;5.13;3.70;;;;;;;;;;4996137;28;20022;-84
2022/08/19 10:28:46;;;;;;;3.97;3.58;;;;;;;;;;4979094;28;20069;-83
2022/08/19 10:31:16;;;;;;;6.22;3.90;;;;;;;;;;4996467;28;20057;-84
2022/08/19 10:33:42;;;;;;;9.93;4.03;;;;;;;;;;5000960;28;20342;-85
2022/08/19 10:36:14;;;;;;;7.65;4.18;;;;;;;;;;4999442;28;20117;-85
2022/08/19 10:38:41;;;;;;;6.55;4.00;;;;;;;;;;4976606;28;20026;-86
2022/08/19 10:41:30;;;;;;;5.22;3.55;;;;;;;;;;5007484;28;20513;-86
2022/08/19 10:43:57;;;;;;;;;;;;;;;;;;4993167;28;20156;-82
2022/08/19 10:46:24;;;;;;;7.03;3.63;;;;;;;;;;4991282;28;20363;-82
2022/08/19 10:48:50;;;;;;;4.65;3.63;;;;;;;;;;4996682;28;20470;-83
2022/08/19 10:54:00;;;;;;;5.68;3.67;;;;;;;;;;4994441;28;20853;-84
2022/08/19 10:59:13;;;;;;;5.15;3.75;;;;;;;;;;4996860;28;20033;-84
2022/08/19 11:01:40;;;;;;;5.57;4.00;;;;;;;;;;4981068;28;20373;-85
2022/08/19 11:04:08;;;;;;;5.15;4.47;;;;;;;;;;4997683;28;20033;-84
2022/08/19 11:06:33;;;;;;;8.40;4.50;;;;;;;;;;4973749;28;20077;-84
2022/08/19 11:08:59;;;;;;;5.50;4.35;;;;;;;;;;4993687;28;20430;-84
2022/08/19 11:11:25;;;;;;;7.80;4.10;;;;;;;;;;4980092;28;20386;-83
2022/08/19 11:13:52;;;;;;;6.60;4.30;;;;;;;;;;4992641;28;20041;-84
2022/08/19 11:16:20;;;;;;;6.22;3.78;;;;;;;;;;4998004;28;20022;-83
2022/08/19 11:18:48;;;;;;;17.67;6.00;;;;;;;;;;4993406;28;20062;-83
2022/08/19 11:21:32;;;;;;;10.55;5.22;;;;;;;;;;4994319;28;20034;-84
2022/08/19 11:24:00;;;;;;;4.82;4.13;;;;;;;;;;4993384;28;20114;-82
2022/08/19 11:26:28;;;;;;;6.30;3.85;;;;;;;;;;4993697;28;20030;-84
2022/08/19 11:28:54;;;;;;;6.72;4.60;;;;;;;;;;4994115;28;20378;-83
2022/08/19 11:31:22;;;;;;;5.63;4.00;;;;;;;;;;4993722;28;20466;-84
2022/08/19 11:33:50;;;;;;;4.53;4.05;;;;;;;;;;5009644;28;20125;-82
2022/08/19 11:36:17;;;;;;;6.13;4.43;;;;;;;;;;4995374;28;20498;-83
2022/08/19 11:38:42;;;;;;;7.90;4.38;;;;;;;;;;4996779;28;20113;-81
2022/08/19 11:41:08;;;;;;;4.95;3.78;;;;;;;;;;4994167;28;20112;-82
2022/08/19 11:43:35;;;;;;;9.38;4.65;;;;;;;;;;4992280;28;20045;-81
2022/08/19 11:46:06;;;;;;;7.05;4.68;;;;;;;;;;4998627;28;20530;-81
2022/08/19 11:48:32;;;;;;;5.20;4.20;;;;;;;;;;4991875;28;20026;-81
2022/08/19 11:50:58;;;;;;;6.30;4.20;;;;;;;;;;4993500;28;20031;-81
2022/08/19 11:53:24;;;;;;;5.38;4.32;;;;;;;;;;4997998;28;20060;-83
2022/08/19 11:55:53;;;;;;;6.40;4.28;;;;;;;;;;4999766;28;20467;-82
2022/08/19 11:58:19;;;;;;;6.35;4.10;;;;;;;;;;5001927;28;20497;-84
2022/08/19 12:00:44;;;;;;;11.80;7.45;;;;;;;;;;4998694;28;20034;-82
2022/08/19 12:03:12;;;;;;;8.75;7.13;;;;;;;;;;4996665;28;20080;-82
2022/08/19 12:05:39;;;;;;;5.88;4.20;;;;;;;;;;5003578;28;20105;-82
2022/08/19 12:08:05;;;;;;;4.78;4.10;;;;;;;;;;4997864;28;20045;-83
2022/08/19 12:10:31;;;;;;;5.75;4.30;;;;;;;;;;4997832;28;20026;-82
2022/08/19 12:12:57;;;;;;;6.10;4.13;;;;;;;;;;4997726;28;20485;-83
2022/08/19 12:15:22;;;;;;;8.02;4.80;;;;;;;;;;5017915;28;20018;-83
2022/08/19 12:17:48;;;;;;;5.75;4.05;;;;;;;;;;4996970;28;20054;-82
2022/08/19 12:20:15;;;;;;;6.47;3.92;;;;;;;;;;5001347;28;20081;-81
2022/08/19 12:22:41;;;;;;;5.38;4.05;;;;;;;;;;4995889;28;20040;-83
2022/08/19 12:25:08;;;;;;;4.75;4.22;;;;;;;;;;4979899;28;20478;-84
2022/08/19 12:27:35;;;;;;;19.00;17.05;;;;;;;;;;4993093;28;20431;-83
2022/08/19 12:30:02;;;;;;;6.18;4.57;;;;;;;;;;4997987;28;20023;-83
2022/08/19 12:32:28;;;;;;;10.20;8.25;;;;;;;;;;4993176;28;20132;-84
2022/08/19 12:34:54;;;;;;;4.75;4.35;;;;;;;;;;4999647;28;20101;-83
2022/08/19 12:37:20;;;;;;;7.53;4.07;;;;;;;;;;5000393;28;20474;-84
2022/08/19 12:39:46;;;;;;;6.00;4.47;;;;;;;;;;4998840;28;20031;-84
2022/08/19 12:42:13;;;;;;;5.28;4.60;;;;;;;;;;4999467;28;20434;-83
2022/08/19 12:44:40;;;;;;;6.20;5.60;;;;;;;;;;4994460;28;20030;-83
2022/08/19 12:47:07;;;;;;;7.28;5.28;;;;;;;;;;4993677;28;20057;-84
2022/08/19 12:49:36;;;;;;;6.32;5.63;;;;;;;;;;4995632;28;20585;-83
2022/08/19 12:52:03;;;;;;;6.03;4.00;;;;;;;;;;5001572;28;20364;-84
2022/08/19 12:54:30;;;;;;;5.22;4.72;;;;;;;;;;5005435;28;20101;-83
2022/08/19 12:56:56;;;;;;;5.50;4.25;;;;;;;;;;4992671;28;20113;-83
2022/08/19 12:59:22;;;;;;;8.68;4.70;;;;;;;;;;4992705;28;20088;-83
2022/08/19 13:01:47;;;;;;;5.38;4.00;;;;;;;;;;4994492;28;20390;-84
2022/08/19 13:04:12;;;;;;;7.80;4.47;;;;;;;;;;4999794;28;20053;-83
2022/08/19 13:06:38;;;;;;;5.38;4.45;;;;;;;;;;5004547;28;20365;-82
2022/08/19 13:09:04;;;;;;;6.03;4.40;;;;;;;;;;4994012;28;20038;-81
2022/08/19 13:11:33;;;;;;;6.70;4.78;;;;;;;;;;5000699;28;20056;-84
2022/08/19 13:13:59;;;;;;;;;;;;;;;;;;5002070;28;20018;-82
2022/08/19 13:16:26;;;;;;;6.13;4.32;;;;;;;;;;4998711;28;19960;-82
2022/08/19 13:18:52;;;;;;;5.18;4.35;;;;;;;;;;4992420;28;20050;-83
2022/08/19 13:21:19;;;;;;;4.28;3.88;;;;;;;;;;4992063;28;20014;-83
2022/08/19 13:23:45;;;;;;;4.60;3.72;;;;;;;;;;4992347;28;20069;-83
2022/08/19 13:26:12;;;;;;;5.78;4.20;;;;;;;;;;5003320;28;20497;-82
2022/08/19 13:34:09;;;;;;;39.78;36.38;;;;;;;;;;4994566;28;20332;-83
2022/08/19 13:36:36;;;;;;;35.80;32.42;;;;;;;;;;4993080;28;20027;-83
2022/08/19 13:39:03;;;;;;;24.75;22.42;;;;;;;;;;4992419;28;20046;-83
2022/08/19 13:41:28;;;;;;;5.75;5.15;;;;;;;;;;4992086;28;20029;-83
2022/08/19 13:43:54;;;;;;;5.10;4.10;;;;;;;;;;4981454;28;20042;-84
2022/08/19 13:46:20;;;;;;;5.05;4.43;;;;;;;;;;4998383;28;20435;-83
2022/08/19 13:48:48;;;;;;;7.22;4.75;;;;;;;;;;4988919;28;20022;-83
2022/08/19 13:51:16;;;;;;;4.90;4.40;;;;;;;;;;4975734;28;20030;-82
2022/08/19 13:53:42;;;;;;;9.77;4.53;;;;;;;;;;4998213;28;20062;-83
2022/08/19 13:56:16;;;;;;;5.50;4.10;;;;;;;;;;4991276;28;20026;-84
2022/08/19 13:58:42;;;;;;;12.73;4.97;;;;;;;;;;4992645;28;20146;-83
2022/08/19 14:01:08;;;;;;;4.25;3.85;;;;;;;;;;4999308;28;20514;-83
2022/08/19 14:03:34;;;;;;;5.82;4.15;;;;;;;;;;4985845;28;20064;-84
2022/08/19 14:06:00;;;;;;;5.88;4.13;;;;;;;;;;4990516;28;20113;-83
2022/08/19 14:08:27;;;;;;;6.68;4.28;;;;;;;;;;4999641;28;20125;-84
2022/08/19 14:10:54;;;;;;;5.07;4.28;;;;;;;;;;4991775;28;20057;-83
2022/08/19 14:13:21;;;;;;;4.70;3.97;;;;;;;;;;4992227;28;20133;-83
2022/08/19 14:15:47;;;;;;;14.75;13.20;;;;;;;;;;4992705;28;20113;-83
2022/08/19 14:18:14;;;;;;;16.83;15.32;;;;;;;;;;4992972;28;20133;-83
2022/08/19 14:20:40;;;;;;;6.25;5.63;;;;;;;;;;4997813;28;20030;-84
2022/08/19 14:23:06;;;;;;;5.65;4.47;;;;;;;;;;4999070;28;20151;-84
2022/08/19 14:25:32;;;;;;;6.32;4.38;;;;;;;;;;4991685;28;20137;-84
2022/08/19 14:27:58;;;;;;;8.60;4.30;;;;;;;;;;4999105;28;20462;-83
2022/08/19 14:30:27;;;;;;;5.93;4.25;;;;;;;;;;4998273;28;20133;-83
2022/08/19 14:32:53;;;;;;;9.15;5.03;;;;;;;;;;4990856;28;20479;-84
2022/08/19 14:35:21;;;;;;;6.38;4.07;;;;;;;;;;4990696;28;20482;-83
2022/08/19 14:37:48;;;;;;;4.80;4.30;;;;;;;;;;4990263;28;21022;-84
2022/08/19 14:40:16;;;;;;;22.80;20.67;;;;;;;;;;4998079;28;20493;-83
2022/08/19 14:42:42;;;;;;;6.70;4.82;;;;;;;;;;5003017;28;20044;-83
2022/08/19 14:45:08;;;;;;;7.72;5.75;;;;;;;;;;4995270;28;20026;-83
2022/08/19 14:47:34;;;;;;;6.95;5.07;;;;;;;;;;4973279;28;20022;-83
2022/08/19 14:49:59;;;;;;;5.47;4.50;;;;;;;;;;4985887;28;20038;-83
2022/08/19 14:52:25;;;;;;;6.90;4.22;;;;;;;;;;4997993;28;20025;-84
2022/08/19 14:54:51;;;;;;;7.22;4.72;;;;;;;;;;4993870;28;20064;-84
2022/08/19 14:57:16;;;;;;;8.23;4.93;;;;;;;;;;4990854;28;20027;-83
2022/08/19 14:59:43;;;;;;;8.85;4.70;;;;;;;;;;5000791;28;20058;-83
2022/08/19 15:02:09;;;;;;;14.38;13.13;;;;;;;;;;4997797;28;20411;-83
2022/08/19 15:04:34;;;;;;;25.60;22.38;;;;;;;;;;4990748;28;20034;-83
2022/08/19 15:07:00;;;;;;;11.30;9.93;;;;;;;;;;4996964;28;20530;-84
2022/08/19 15:09:25;;;;;;;9.02;4.88;;;;;;;;;;4995422;28;20526;-83